Time;durP1;ratioP1;P1;durP2;ratioP2;P2;SDS_P1;SDS_P2;PMS_P1;PMS_P2;Temp;Humidity;BMP_temperature;BMP_pressure;BME280_temperature;BME280_humidity;BME280_pressure;Samples;Min_cycle;Max_cycle;Signal;HPM_P1;HPM_P2
2023/05/25 00:00:04;;;;;;;19.88;17.77;;;14.80;99.90;;;;;;4589998;19;20019;-21
2023/05/25 00:01:57;;;;;;;18.17;15.95;;;14.80;99.90;;;;;;4589886;19;20025;-24
2023/05/25 00:03:30;;;;;;;17.77;15.27;;;14.90;99.90;;;;;;4588358;19;20428;-25
2023/05/25 00:05:01;;;;;;;16.45;14.80;;;14.80;99.90;;;;;;4589057;19;20493;-24
2023/05/25 00:06:36;;;;;;;17.52;15.68;;;14.90;99.90;;;;;;4590039;19;20011;-24
2023/05/25 00:08:08;;;;;;;18.20;16.30;;;14.80;99.90;;;;;;4589955;19;20489;-24
2023/05/25 00:09:44;;;;;;;18.17;15.20;;;14.90;99.90;;;;;;4588417;19;20027;-24
2023/05/25 00:11:18;;;;;;;17.75;15.73;;;14.80;99.90;;;;;;4588372;19;20022;-27
2023/05/25 00:12:50;;;;;;;18.02;15.57;;;14.80;99.90;;;;;;4589702;19;20014;-23
2023/05/25 00:14:22;;;;;;;16.58;14.85;;;14.80;99.90;;;;;;4589408;19;20002;-23
2023/05/25 00:15:53;;;;;;;16.27;14.25;;;14.80;99.90;;;;;;4589692;19;20017;-26
2023/05/25 00:17:30;;;;;;;20.33;16.73;;;14.80;99.90;;;;;;4589931;19;20011;-24
2023/05/25 00:19:04;;;;;;;18.33;15.80;;;14.80;99.90;;;;;;4589318;19;20014;-24
2023/05/25 00:20:37;;;;;;;16.98;14.77;;;14.80;99.90;;;;;;4589137;19;20008;-29
2023/05/25 00:22:10;;;;;;;17.02;15.23;;;14.80;99.90;;;;;;4589370;19;20039;-24
2023/05/25 00:23:42;;;;;;;16.63;14.93;;;14.80;99.90;;;;;;4588279;19;20018;-23
2023/05/25 00:25:16;;;;;;;17.77;15.52;;;14.80;99.90;;;;;;4588002;19;20007;-30
2023/05/25 00:26:48;;;;;;;17.10;15.30;;;14.80;99.90;;;;;;4588674;19;20031;-28
2023/05/25 00:28:19;;;;;;;17.65;15.65;;;14.80;99.90;;;;;;4587980;19;20010;-25
2023/05/25 00:29:51;;;;;;;16.73;14.93;;;14.80;99.90;;;;;;4588828;19;20468;-25
2023/05/25 00:31:23;;;;;;;;;;;14.80;99.90;;;;;;4589456;19;20007;-28
2023/05/25 00:32:55;;;;;;;17.45;15.55;;;14.80;99.90;;;;;;4588636;19;19943;-24
2023/05/25 00:34:27;;;;;;;17.95;15.93;;;14.80;99.90;;;;;;4589230;19;20406;-27
2023/05/25 00:35:59;;;;;;;17.77;15.88;;;14.80;99.90;;;;;;4589530;19;20010;-24
2023/05/25 00:37:31;;;;;;;16.55;14.85;;;14.80;99.90;;;;;;4589615;19;20003;-28
2023/05/25 00:39:02;;;;;;;16.80;15.10;;;14.80;99.90;;;;;;4588996;19;20015;-24
2023/05/25 00:40:34;;;;;;;17.73;15.93;;;14.80;99.90;;;;;;4588861;19;20010;-25
2023/05/25 00:42:07;;;;;;;18.98;16.45;;;14.80;99.90;;;;;;4588993;19;20022;-23
2023/05/25 00:43:38;;;;;;;18.38;16.20;;;14.80;99.90;;;;;;4588299;19;20006;-24
2023/05/25 00:45:10;;;;;;;18.65;16.75;;;14.80;99.90;;;;;;4587893;19;20027;-25
2023/05/25 00:46:52;;;;;;;21.65;17.05;;;14.80;99.90;;;;;;4590477;19;20011;-26
2023/05/25 00:48:25;;;;;;;18.40;16.27;;;14.70;99.90;;;;;;4592013;19;20011;-23
2023/05/25 00:49:57;;;;;;;17.67;15.88;;;14.70;99.90;;;;;;4593765;19;20003;-22
2023/05/25 00:51:35;;;;;;;16.45;14.65;;;14.70;99.90;;;;;;4592345;19;20010;-22
2023/05/25 00:53:07;;;;;;;16.55;14.75;;;14.70;99.90;;;;;;4593023;19;20028;-27
2023/05/25 00:54:38;;;;;;;18.05;16.02;;;14.70;99.90;;;;;;4594171;19;20035;-23
2023/05/25 00:56:17;;;;;;;20.02;17.27;;;14.70;99.90;;;;;;4594269;19;20078;-23
2023/05/25 00:57:49;;;;;;;16.92;15.15;;;14.70;99.90;;;;;;4593486;19;20078;-23
2023/05/25 00:59:34;;;;;;;17.48;15.48;;;14.80;99.90;;;;;;4594295;19;20100;-24
2023/05/25 01:01:10;;;;;;;16.80;15.15;;;14.80;99.90;;;;;;4592852;19;20030;-27
2023/05/25 01:02:43;;;;;;;17.70;14.85;;;14.70;99.90;;;;;;4594389;19;20362;-24
2023/05/25 01:04:14;;;;;;;17.63;15.75;;;14.70;99.90;;;;;;4594320;19;20011;-24
2023/05/25 01:05:47;;;;;;;18.65;16.60;;;14.70;99.90;;;;;;4591092;19;20527;-23
2023/05/25 01:07:24;;;;;;;18.15;16.27;;;14.70;99.90;;;;;;4592746;19;20011;-26
2023/05/25 01:08:59;;;;;;;17.83;16.00;;;14.70;99.90;;;;;;4592025;19;20010;-27
2023/05/25 01:10:31;;;;;;;17.90;16.00;;;14.70;99.90;;;;;;4591860;19;20031;-24
2023/05/25 01:12:02;;;;;;;;;;;14.70;99.90;;;;;;4592680;19;20013;-25
2023/05/25 01:13:36;;;;;;;18.42;16.48;;;14.70;99.90;;;;;;4592760;19;19918;-25
2023/05/25 01:15:09;;;;;;;17.40;15.60;;;14.70;99.90;;;;;;4591835;19;20006;-24
2023/05/25 01:16:42;;;;;;;17.58;15.77;;;14.70;99.90;;;;;;4592463;19;20088;-23
2023/05/25 01:18:14;;;;;;;17.63;15.77;;;14.70;99.90;;;;;;4592896;19;20532;-24
2023/05/25 01:19:47;;;;;;;17.65;15.85;;;14.70;99.90;;;;;;4592956;19;20025;-24
2023/05/25 01:21:28;;;;;;;19.40;15.60;;;14.70;99.90;;;;;;4593086;19;20042;-24
2023/05/25 01:23:10;;;;;;;16.98;15.23;;;14.70;99.90;;;;;;4590886;19;20031;-24
2023/05/25 01:25:08;;;;;;;16.85;15.10;;;14.70;99.90;;;;;;4592327;19;20344;-26
2023/05/25 01:26:47;;;;;;;17.98;16.08;;;14.70;99.90;;;;;;4590547;19;20014;-23
2023/05/25 01:28:28;;;;;;;15.73;14.10;;;14.70;99.90;;;;;;4590283;19;20403;-24
2023/05/25 01:30:00;;;;;;;17.33;15.57;;;14.70;99.90;;;;;;4590699;19;20043;-23
2023/05/25 01:31:32;;;;;;;17.33;15.52;;;14.70;99.90;;;;;;4590644;19;20013;-24
2023/05/25 01:33:04;;;;;;;16.50;14.80;;;14.70;99.90;;;;;;4590138;19;20015;-22
2023/05/25 01:34:35;;;;;;;16.90;15.18;;;14.70;99.90;;;;;;4590246;19;20010;-22
2023/05/25 01:36:08;;;;;;;16.63;14.75;;;14.70;99.90;;;;;;4591079;19;19999;-24
2023/05/25 01:37:46;;;;;;;16.38;14.70;;;14.70;99.90;;;;;;4590028;19;20014;-25
2023/05/25 01:39:21;;;;;;;16.42;14.70;;;14.70;99.90;;;;;;4590014;19;20074;-24
2023/05/25 01:40:52;;;;;;;16.95;15.25;;;14.70;99.90;;;;;;4590550;19;20014;-24
2023/05/25 01:42:23;;;;;;;16.13;14.43;;;14.80;99.90;;;;;;4590287;19;20022;-24
2023/05/25 01:43:55;;;;;;;15.40;13.90;;;14.70;99.90;;;;;;4590105;19;20014;-24
2023/05/25 01:45:26;;;;;;;17.63;15.82;;;14.70;99.90;;;;;;4589398;19;20018;-25
2023/05/25 01:47:01;;;;;;;;;;;14.80;99.90;;;;;;4591281;19;20026;-25
2023/05/25 01:48:42;;;;;;;16.90;14.75;;;14.80;99.90;;;;;;4590568;19;19918;-23
2023/05/25 01:50:34;;;;;;;16.88;15.07;;;14.80;99.90;;;;;;4590175;19;20039;-24
2023/05/25 01:52:17;;;;;;;16.67;14.98;;;14.80;99.90;;;;;;4589751;19;20031;-23
2023/05/25 01:53:53;;;;;;;16.23;14.52;;;14.80;99.90;;;;;;4589785;19;20014;-27
2023/05/25 01:55:26;;;;;;;17.75;15.02;;;14.70;99.90;;;;;;4590328;19;20472;-24
2023/05/25 01:57:00;;;;;;;16.77;15.13;;;14.70;99.90;;;;;;4590659;19;20014;-26
2023/05/25 01:58:34;;;;;;;15.18;13.68;;;14.70;99.90;;;;;;4588488;19;20011;-24
2023/05/25 02:00:07;;;;;;;18.05;16.25;;;14.70;99.90;;;;;;4589879;19;20007;-23
2023/05/25 02:01:40;;;;;;;16.90;15.15;;;14.70;99.90;;;;;;4590224;19;20013;-27
2023/05/25 02:03:13;;;;;;;17.13;15.43;;;14.70;99.90;;;;;;4590450;19;20024;-24
2023/05/25 02:04:47;;;;;;;16.77;15.13;;;14.70;99.90;;;;;;4591271;19;20006;-26
2023/05/25 02:06:22;;;;;;;15.82;14.32;;;14.70;99.90;;;;;;4588155;19;20011;-28
2023/05/25 02:07:54;;;;;;;15.95;14.30;;;14.70;99.90;;;;;;4591177;19;20033;-22
2023/05/25 02:09:25;;;;;;;17.27;15.40;;;14.70;99.90;;;;;;4569339;19;20017;-24
2023/05/25 02:10:57;;;;;;;14.75;13.20;;;14.90;99.90;;;;;;4591667;19;20015;-25
2023/05/25 02:12:30;;;;;;;13.35;11.80;;;15.30;99.90;;;;;;4591871;19;20010;-24
2023/05/25 02:14:02;;;;;;;12.93;11.63;;;15.70;99.90;;;;;;4590830;19;20011;-24
2023/05/25 02:15:35;;;;;;;17.83;12.35;;;16.00;99.90;;;;;;4591463;19;20022;-25
2023/05/25 02:17:08;;;;;;;11.68;10.32;;;16.30;99.90;;;;;;4591544;19;20086;-23
2023/05/25 02:18:39;;;;;;;11.30;9.77;;;16.60;99.90;;;;;;4591803;19;20014;-27
2023/05/25 02:20:12;;;;;;;11.23;9.65;;;16.80;99.90;;;;;;4590451;19;20007;-22
2023/05/25 02:21:44;;;;;;;12.50;9.50;;;17.00;99.90;;;;;;4591473;19;20003;-22
2023/05/25 02:23:17;;;;;;;11.40;9.70;;;17.20;99.90;;;;;;4590713;19;20104;-25
2023/05/25 02:24:49;;;;;;;11.68;9.55;;;17.30;99.90;;;;;;4592191;19;20018;-29
2023/05/25 02:26:20;;;;;;;13.38;9.48;;;17.50;99.90;;;;;;4590998;19;20006;-27
2023/05/25 02:27:52;;;;;;;11.07;9.98;;;17.60;99.90;;;;;;4591748;19;20011;-25
2023/05/25 02:29:23;;;;;;;;;;;17.70;99.90;;;;;;4592052;19;20113;-25
2023/05/25 02:30:54;;;;;;;12.77;9.32;;;17.80;99.90;;;;;;4591374;19;20021;-27
2023/05/25 02:32:28;;;;;;;10.95;9.80;;;17.90;99.90;;;;;;4590361;19;20018;-26
2023/05/25 02:34:02;;;;;;;12.48;10.00;;;18.00;99.90;;;;;;4591363;19;20012;-25
2023/05/25 02:35:33;;;;;;;11.13;9.57;;;18.00;99.90;;;;;;4591063;19;20103;-27
2023/05/25 02:37:05;;;;;;;12.25;10.00;;;18.10;99.90;;;;;;4590092;19;20015;-26
2023/05/25 02:38:37;;;;;;;;;;;18.20;99.90;;;;;;4592538;19;19999;-25
2023/05/25 02:40:09;;;;;;;11.98;9.90;;;18.20;99.90;;;;;;4590947;19;19915;-24
2023/05/25 02:41:41;;;;;;;12.10;9.52;;;18.20;99.90;;;;;;4591211;19;20520;-27
2023/05/25 02:43:15;;;;;;;11.55;9.20;;;18.20;99.90;;;;;;4591113;19;20010;-24
2023/05/25 02:44:47;;;;;;;12.38;9.20;;;18.30;99.90;;;;;;4591343;19;20361;-24
2023/05/25 02:46:21;;;;;;;11.55;9.85;;;18.30;99.90;;;;;;4588702;19;20030;-23
2023/05/25 02:47:53;;;;;;;12.35;10.73;;;18.30;99.90;;;;;;4589986;19;20484;-25
2023/05/25 02:49:25;;;;;;;11.73;10.40;;;18.40;99.90;;;;;;4590380;19;20022;-29
2023/05/25 02:50:57;;;;;;;11.23;9.82;;;18.40;99.90;;;;;;4591372;19;20018;-25
2023/05/25 02:52:30;;;;;;;11.48;9.63;;;18.40;99.90;;;;;;4590703;19;20011;-25
2023/05/25 02:54:04;;;;;;;10.35;9.25;;;18.50;99.90;;;;;;4591102;19;20070;-24
2023/05/25 02:55:39;;;;;;;11.88;9.07;;;18.50;99.90;;;;;;4591019;19;20003;-28
2023/05/25 02:57:10;;;;;;;10.65;9.23;;;18.60;99.90;;;;;;4591686;19;20015;-24
2023/05/25 02:58:41;;;;;;;11.07;8.80;;;18.60;99.90;;;;;;4589479;19;20022;-25
2023/05/25 03:00:14;;;;;;;11.18;8.88;;;18.60;99.90;;;;;;4590238;19;20363;-24
2023/05/25 03:01:45;;;;;;;10.38;8.82;;;18.60;99.90;;;;;;4591219;19;20011;-29
2023/05/25 03:03:18;;;;;;;9.85;8.57;;;18.60;99.90;;;;;;4589711;19;20364;-27
2023/05/25 03:04:52;;;;;;;10.05;8.98;;;18.70;99.90;;;;;;4590369;19;20007;-28
2023/05/25 03:06:26;;;;;;;11.07;8.60;;;18.70;99.90;;;;;;4589940;19;20011;-30
2023/05/25 03:07:58;;;;;;;9.85;8.65;;;18.70;99.90;;;;;;4590509;19;20011;-25
2023/05/25 03:09:29;;;;;;;11.05;9.15;;;18.70;99.90;;;;;;4590651;19;20006;-26
2023/05/25 03:11:00;;;;;;;10.35;9.18;;;18.70;99.90;;;;;;4588783;19;20011;-24
2023/05/25 03:12:33;;;;;;;10.35;8.70;;;18.70;99.90;;;;;;4589542;19;20011;-24
2023/05/25 03:14:05;;;;;;;10.63;9.52;;;18.70;99.90;;;;;;4590566;19;20014;-27
2023/05/25 03:15:38;;;;;;;10.70;9.13;;;18.70;99.90;;;;;;4590823;19;20013;-27
2023/05/25 03:17:10;;;;;;;10.65;9.10;;;18.70;99.90;;;;;;4590580;19;20026;-26
2023/05/25 03:18:42;;;;;;;10.98;9.43;;;18.70;99.90;;;;;;4589513;19;20099;-23
2023/05/25 03:20:16;;;;;;;10.00;8.98;;;18.70;99.90;;;;;;4590341;19;20586;-30
2023/05/25 03:21:47;;;;;;;11.35;8.80;;;18.70;99.90;;;;;;4590227;19;20010;-28
2023/05/25 03:23:19;;;;;;;10.10;9.02;;;18.70;99.90;;;;;;4589826;19;20031;-28
2023/05/25 03:24:52;;;;;;;10.60;9.50;;;18.70;99.90;;;;;;4590815;19;20571;-27
2023/05/25 03:26:24;;;;;;;11.50;9.45;;;18.70;99.90;;;;;;4589595;19;20352;-24
2023/05/25 03:27:57;;;;;;;10.50;8.85;;;18.70;99.90;;;;;;4590207;19;20472;-24
2023/05/25 03:29:28;;;;;;;;;;;18.70;99.90;;;;;;4591083;19;20153;-24
2023/05/25 03:31:00;;;;;;;12.68;9.43;;;18.70;99.90;;;;;;4590647;19;20414;-24
2023/05/25 03:32:34;;;;;;;9.90;8.90;;;18.70;99.90;;;;;;4589577;19;20013;-29
2023/05/25 03:34:05;;;;;;;;;;;18.80;99.90;;;;;;4590585;19;20021;-24
2023/05/25 03:35:36;;;;;;;12.18;9.13;;;18.80;99.90;;;;;;4590415;19;19915;-28
2023/05/25 03:37:10;;;;;;;12.65;9.07;;;18.80;99.90;;;;;;4589608;19;20382;-29
2023/05/25 03:38:42;;;;;;;10.25;9.15;;;18.80;99.90;;;;;;4589417;19;20082;-23
2023/05/25 03:40:16;;;;;;;11.38;8.57;;;18.80;99.90;;;;;;4588922;19;20010;-28
2023/05/25 03:41:49;;;;;;;9.35;8.32;;;18.80;99.90;;;;;;4589826;19;20038;-24
2023/05/25 03:43:21;;;;;;;9.52;8.52;;;18.80;99.90;;;;;;4589555;19;20030;-24
2023/05/25 03:44:53;;;;;;;12.63;9.52;;;18.80;99.90;;;;;;4590625;19;20011;-24
2023/05/25 03:46:24;;;;;;;12.60;10.60;;;18.80;99.90;;;;;;4588543;19;20116;-24
2023/05/25 03:47:56;;;;;;;11.13;9.63;;;18.90;99.90;;;;;;4590526;19;20031;-25
2023/05/25 03:49:27;;;;;;;12.73;10.15;;;18.90;99.90;;;;;;4590539;19;20006;-26
2023/05/25 03:50:59;;;;;;;10.38;8.93;;;19.00;99.90;;;;;;4589548;19;20010;-25
2023/05/25 03:52:32;;;;;;;12.32;9.23;;;19.10;99.90;;;;;;4589853;19;20082;-25
2023/05/25 03:54:03;;;;;;;10.68;9.40;;;19.30;99.90;;;;;;4590312;19;20066;-26
2023/05/25 03:55:36;;;;;;;10.05;8.90;;;19.40;99.90;;;;;;4590424;19;20007;-23
2023/05/25 03:57:07;;;;;;;9.02;8.07;;;19.50;99.90;;;;;;4589684;19;20015;-24
2023/05/25 03:58:40;;;;;;;11.18;8.93;;;19.50;99.90;;;;;;4589645;19;20003;-23
2023/05/25 04:00:12;;;;;;;10.05;8.40;;;19.60;99.90;;;;;;4590155;19;20015;-24
2023/05/25 04:01:44;;;;;;;9.32;8.18;;;19.70;99.90;;;;;;4588684;19;20015;-25
2023/05/25 04:03:15;;;;;;;10.73;9.13;;;19.70;99.90;;;;;;4588569;19;20015;-27
2023/05/25 04:04:50;;;;;;;9.45;7.85;;;19.70;99.90;;;;;;4589424;19;20031;-24
2023/05/25 04:06:24;;;;;;;11.82;8.45;;;19.80;99.90;;;;;;4587353;19;20025;-28
2023/05/25 04:07:58;;;;;;;11.52;8.68;;;19.80;99.90;;;;;;4588840;19;20021;-25
2023/05/25 04:09:29;;;;;;;10.02;8.75;;;19.80;99.90;;;;;;4589100;19;20078;-25
2023/05/25 04:11:00;;;;;;;10.55;9.07;;;19.70;99.90;;;;;;4589707;19;20018;-28
2023/05/25 04:12:33;;;;;;;9.95;8.85;;;19.70;99.90;;;;;;4588445;19;20333;-28
2023/05/25 04:14:05;;;;;;;10.43;8.10;;;19.70;99.90;;;;;;4589699;19;20014;-24
2023/05/25 04:15:37;;;;;;;10.20;8.73;;;19.80;99.90;;;;;;4588378;19;20018;-24
2023/05/25 04:17:10;;;;;;;9.13;7.53;;;19.80;99.90;;;;;;4589069;19;20021;-25
2023/05/25 04:18:42;;;;;;;9.80;8.00;;;19.70;99.90;;;;;;4589989;19;20018;-24
2023/05/25 04:20:14;;;;;;;9.77;8.10;;;19.80;99.90;;;;;;4589684;19;20003;-24
2023/05/25 04:21:46;;;;;;;10.70;8.43;;;19.80;99.90;;;;;;4589543;19;20011;-22
2023/05/25 04:23:18;;;;;;;10.23;7.85;;;19.80;99.90;;;;;;4592688;19;20468;-26
2023/05/25 04:24:50;;;;;;;10.10;8.80;;;19.80;99.90;;;;;;4594194;19;20011;-26
2023/05/25 04:26:21;;;;;;;;;;;19.70;99.90;;;;;;4592846;19;20035;-25
2023/05/25 04:27:52;;;;;;;10.38;8.48;;;19.70;99.90;;;;;;4593751;19;20275;-26
2023/05/25 04:29:23;;;;;;;9.02;7.45;;;19.70;99.90;;;;;;4593844;19;20577;-25
2023/05/25 04:30:55;;;;;;;10.18;7.93;;;19.70;99.90;;;;;;4592980;19;20011;-23
2023/05/25 04:32:28;;;;;;;11.32;7.93;;;19.70;99.90;;;;;;4592437;19;20551;-24
2023/05/25 04:34:01;;;;;;;8.77;7.45;;;19.70;99.90;;;;;;4592379;19;20010;-28
2023/05/25 04:35:35;;;;;;;9.52;7.50;;;19.70;99.90;;;;;;4592863;19;20025;-24
2023/05/25 04:37:07;;;;;;;10.07;7.90;;;19.70;99.90;;;;;;4592519;19;20035;-24
2023/05/25 04:38:40;;;;;;;8.52;7.53;;;19.60;99.90;;;;;;4592250;19;20022;-24
2023/05/25 04:40:12;;;;;;;;;;;19.60;99.90;;;;;;4594123;19;20014;-25
2023/05/25 04:41:45;;;;;;;9.52;8.63;;;19.60;99.90;;;;;;4593715;19;20274;-24
2023/05/25 04:43:17;;;;;;;8.27;7.47;;;19.60;99.90;;;;;;4593051;19;20010;-24
2023/05/25 04:44:50;;;;;;;9.40;8.40;;;19.60;99.90;;;;;;4593176;19;20467;-24
2023/05/25 04:46:21;;;;;;;10.23;7.70;;;19.60;99.90;;;;;;4590891;19;20086;-24
2023/05/25 04:47:53;;;;;;;8.10;7.00;;;19.60;99.90;;;;;;4593390;19;20078;-25
2023/05/25 04:49:28;;;;;;;9.35;7.65;;;19.60;99.90;;;;;;4593193;19;20018;-26
2023/05/25 04:51:01;;;;;;;10.00;7.60;;;19.60;99.90;;;;;;4591001;19;20341;-27
2023/05/25 04:52:34;;;;;;;10.60;8.07;;;19.60;99.90;;;;;;4592839;19;20018;-23
2023/05/25 04:54:06;;;;;;;9.25;7.45;;;19.60;99.90;;;;;;4593598;19;20321;-27
2023/05/25 04:55:38;;;;;;;9.38;7.63;;;19.60;99.90;;;;;;4593331;19;20036;-25
2023/05/25 04:57:10;;;;;;;9.05;6.97;;;19.60;99.90;;;;;;4593025;19;20022;-26
2023/05/25 04:58:41;;;;;;;9.23;7.20;;;19.60;99.90;;;;;;4593423;19;20014;-25
2023/05/25 05:00:14;;;;;;;7.95;6.80;;;19.60;99.90;;;;;;4593379;19;20034;-27
2023/05/25 05:01:45;;;;;;;8.23;7.15;;;19.70;99.90;;;;;;4593408;19;20074;-25
2023/05/25 05:03:16;;;;;;;9.35;7.70;;;19.60;99.90;;;;;;4593205;19;20082;-25
2023/05/25 05:04:51;;;;;;;;;;;19.60;99.90;;;;;;4593919;19;20027;-24
2023/05/25 05:06:24;;;;;;;8.18;6.95;;;19.60;99.90;;;;;;4589505;19;19936;-25
2023/05/25 05:07:56;;;;;;;9.48;7.45;;;19.60;99.90;;;;;;4590676;19;20027;-27
2023/05/25 05:09:28;;;;;;;10.10;6.78;;;19.60;99.90;;;;;;4590534;19;20025;-24
2023/05/25 05:10:59;;;;;;;10.02;7.35;;;19.60;99.90;;;;;;4587197;19;20024;-27
2023/05/25 05:12:30;;;;;;;9.38;6.57;;;19.60;99.90;;;;;;4590824;19;20037;-25
2023/05/25 05:14:02;;;;;;;7.10;6.38;;;19.60;99.90;;;;;;4589118;19;20027;-30
2023/05/25 05:15:33;;;;;;;;;;;19.60;99.90;;;;;;4589873;19;20014;-27
2023/05/25 05:17:05;;;;;;;9.50;7.00;;;19.60;99.90;;;;;;4588409;19;19925;-22
2023/05/25 05:18:36;;;;;;;9.15;7.00;;;19.60;99.90;;;;;;4588776;19;20093;-25
2023/05/25 05:20:08;;;;;;;7.60;6.72;;;19.60;99.90;;;;;;4591064;19;20111;-26
2023/05/25 05:21:40;;;;;;;8.07;6.70;;;19.60;99.90;;;;;;4588314;19;20568;-23
2023/05/25 05:23:12;;;;;;;7.47;6.68;;;19.70;99.90;;;;;;4590186;19;20368;-25
2023/05/25 05:24:43;;;;;;;10.40;7.15;;;19.70;99.90;;;;;;4589334;19;20480;-25
2023/05/25 05:26:15;;;;;;;9.23;7.53;;;19.80;99.90;;;;;;4588218;19;20014;-24
2023/05/25 05:27:48;;;;;;;9.38;7.55;;;19.90;99.90;;;;;;4588878;19;20014;-24
2023/05/25 05:29:19;;;;;;;9.85;7.78;;;20.00;99.90;;;;;;4589336;19;20014;-27
2023/05/25 05:30:50;;;;;;;11.75;7.25;;;20.00;99.90;;;;;;4586959;19;20002;-24
2023/05/25 05:32:21;;;;;;;8.85;7.20;;;20.20;99.90;;;;;;4588507;19;20006;-26
2023/05/25 05:33:53;;;;;;;;;;;20.30;99.90;;;;;;4589645;19;20017;-26
2023/05/25 05:35:24;;;;;;;8.23;7.03;;;20.40;99.90;;;;;;4591230;19;19915;-24
2023/05/25 05:36:56;;;;;;;7.93;6.93;;;20.40;99.90;;;;;;4590140;19;20487;-27
2023/05/25 05:38:27;;;;;;;;;;;20.50;99.90;;;;;;4592954;19;20484;-25
2023/05/25 05:39:59;;;;;;;8.27;6.47;;;20.60;99.90;;;;;;4592139;19;19954;-24
2023/05/25 05:41:30;;;;;;;9.52;6.63;;;20.70;99.90;;;;;;4589673;19;20031;-23
2023/05/25 05:43:01;;;;;;;;;;;20.80;99.90;;;;;;4591670;19;20006;-26
2023/05/25 05:44:32;;;;;;;8.48;6.40;;;20.80;99.90;;;;;;4590642;19;20303;-25
2023/05/25 05:46:04;;;;;;;8.50;6.65;;;21.00;99.90;;;;;;4588480;19;20015;-25
2023/05/25 05:47:35;;;;;;;8.93;6.85;;;21.00;99.90;;;;;;4590142;19;20427;-25
2023/05/25 05:49:06;;;;;;;8.38;7.07;;;21.00;99.90;;;;;;4592932;19;20019;-23
2023/05/25 05:50:38;;;;;;;8.13;7.07;;;21.00;99.90;;;;;;4590681;19;20014;-27
2023/05/25 05:52:09;;;;;;;8.18;6.70;;;21.00;99.90;;;;;;4592602;19;20034;-25
2023/05/25 05:53:41;;;;;;;8.50;6.57;;;21.10;99.90;;;;;;4590171;19;20010;-25
2023/05/25 05:55:12;;;;;;;8.35;6.40;;;21.10;99.90;;;;;;4589890;19;20601;-23
2023/05/25 05:56:44;;;;;;;8.20;6.78;;;21.10;99.90;;;;;;4590085;19;20078;-26
2023/05/25 05:58:15;;;;;;;;;;;21.10;99.90;;;;;;4591386;19;20090;-26
2023/05/25 05:59:47;;;;;;;7.03;5.90;;;21.00;99.90;;;;;;4591249;19;20552;-30
2023/05/25 06:01:18;;;;;;;;;;;21.10;99.90;;;;;;4589678;19;20007;-25
2023/05/25 06:02:50;;;;;;;6.68;5.95;;;21.00;99.90;;;;;;4591433;19;20055;-23
2023/05/25 06:04:24;;;;;;;8.77;5.70;;;21.00;99.90;;;;;;4591142;19;20042;-29
2023/05/25 06:05:55;;;;;;;9.27;5.40;;;20.90;99.90;;;;;;4590120;19;20015;-23
2023/05/25 06:07:27;;;;;;;7.53;5.72;;;20.90;99.90;;;;;;4590706;19;20015;-24
2023/05/25 06:09:00;;;;;;;7.70;5.68;;;20.90;99.90;;;;;;4590699;19;20019;-25
2023/05/25 06:10:31;;;;;;;5.85;5.25;;;20.80;99.90;;;;;;4589958;19;20017;-23
2023/05/25 06:12:05;;;;;;;8.13;5.82;;;20.80;99.90;;;;;;4591008;19;20347;-25
2023/05/25 06:13:36;;;;;;;6.93;5.72;;;20.80;99.90;;;;;;4588946;19;20015;-24
2023/05/25 06:15:08;;;;;;;7.95;6.18;;;20.90;99.90;;;;;;4591760;19;20430;-26
2023/05/25 06:16:44;;;;;;;7.82;6.40;;;20.90;99.90;;;;;;4590510;19;20044;-23
2023/05/25 06:18:15;;;;;;;7.13;5.13;;;20.90;99.90;;;;;;4590612;19;20048;-27
2023/05/25 06:19:48;;;;;;;5.93;5.25;;;20.90;99.90;;;;;;4590838;19;20117;-26
2023/05/25 06:21:20;;;;;;;9.13;5.65;;;21.00;99.90;;;;;;4588091;19;20042;-25
2023/05/25 06:22:52;;;;;;;6.00;5.07;;;21.10;99.90;;;;;;4590050;19;20014;-26
2023/05/25 06:24:27;;;;;;;7.10;5.07;;;21.10;99.90;;;;;;4588992;19;20026;-24
2023/05/25 06:26:06;;;;;;;7.90;5.95;;;21.20;99.90;;;;;;4589565;19;20007;-25
2023/05/25 06:27:38;;;;;;;6.60;5.85;;;21.20;99.90;;;;;;4589512;19;20035;-24
2023/05/25 06:29:10;;;;;;;6.20;5.50;;;21.10;99.90;;;;;;4589141;19;20365;-26
2023/05/25 06:30:42;;;;;;;7.43;6.13;;;21.10;99.90;;;;;;4588235;19;20352;-27
2023/05/25 06:32:13;;;;;;;8.30;5.50;;;21.10;99.90;;;;;;4590474;19;20014;-25
2023/05/25 06:33:45;;;;;;;10.05;6.32;;;21.00;99.90;;;;;;4592039;19;20014;-28
2023/05/25 06:35:18;;;;;;;7.75;5.40;;;21.00;99.90;;;;;;4590067;19;20527;-27
2023/05/25 06:36:50;;;;;;;7.45;6.00;;;21.00;99.90;;;;;;4590375;19;20014;-25
2023/05/25 06:38:22;;;;;;;8.10;5.57;;;20.90;99.90;;;;;;4590960;19;20018;-24
2023/05/25 06:39:54;;;;;;;5.93;4.95;;;20.90;99.90;;;;;;4590601;19;20434;-26
2023/05/25 06:41:26;;;;;;;;;;;20.80;99.90;;;;;;4589888;19;20007;-23
2023/05/25 06:42:58;;;;;;;7.82;5.55;;;20.80;99.90;;;;;;4589581;19;20336;-27
2023/05/25 06:44:29;;;;;;;7.47;5.05;;;20.80;99.90;;;;;;4589176;19;20505;-22
2023/05/25 06:46:00;;;;;;;6.97;5.10;;;20.80;99.90;;;;;;4588371;19;20052;-24
2023/05/25 06:47:31;;;;;;;;;;;20.90;99.90;;;;;;4589850;19;20339;-25
2023/05/25 06:49:03;;;;;;;6.45;4.95;;;20.90;99.90;;;;;;4591470;19;19911;-24
2023/05/25 06:50:35;;;;;;;5.53;4.80;;;20.90;99.90;;;;;;4590834;19;20015;-23
2023/05/25 06:52:08;;;;;;;;;;;20.80;99.90;;;;;;4590404;19;20061;-26
2023/05/25 06:53:44;;;;;;;5.82;4.15;;;20.80;99.90;;;;;;4589938;19;19929;-24
2023/05/25 06:55:16;;;;;;;6.40;5.30;;;20.80;99.90;;;;;;4590073;19;20119;-23
2023/05/25 06:56:48;;;;;;;7.63;5.25;;;20.80;99.90;;;;;;4590419;19;20044;-26
2023/05/25 06:58:24;;;;;;;7.40;5.70;;;20.70;99.90;;;;;;4589438;19;20034;-22
2023/05/25 06:59:59;;;;;;;7.53;6.72;;;20.70;99.90;;;;;;4588251;19;20437;-29
2023/05/25 07:01:30;;;;;;;;;;;20.10;99.90;;;;;;4589162;19;20510;-22
2023/05/25 07:03:01;;;;;;;9.55;8.63;;;18.00;99.90;;;;;;4588909;19;19907;-25
2023/05/25 07:04:34;;;;;;;9.50;8.35;;;16.90;99.90;;;;;;4588717;19;20026;-25
2023/05/25 07:06:06;;;;;;;9.30;8.40;;;16.40;99.90;;;;;;4590442;19;20015;-24
2023/05/25 07:07:37;;;;;;;9.20;8.02;;;16.10;99.90;;;;;;4589779;19;20471;-26
2023/05/25 07:09:09;;;;;;;10.57;8.45;;;16.00;99.90;;;;;;4590403;19;20493;-26
2023/05/25 07:10:40;;;;;;;9.63;8.55;;;16.00;99.90;;;;;;4587282;19;20014;-27
2023/05/25 07:12:11;;;;;;;9.82;8.55;;;15.90;99.90;;;;;;4590504;19;20023;-25
2023/05/25 07:13:43;;;;;;;8.82;7.93;;;16.00;99.90;;;;;;4588547;19;20007;-24
2023/05/25 07:15:15;;;;;;;;;;;15.90;99.90;;;;;;4589548;19;20017;-26
2023/05/25 07:16:47;;;;;;;8.93;7.85;;;16.00;99.90;;;;;;4590900;19;19978;-24
2023/05/25 07:18:20;;;;;;;9.48;8.18;;;16.00;99.90;;;;;;4590715;19;20022;-24
2023/05/25 07:19:52;;;;;;;10.18;8.98;;;16.00;99.90;;;;;;4590725;19;20022;-24
2023/05/25 07:21:23;;;;;;;9.30;8.07;;;16.00;99.90;;;;;;4588100;19;20014;-24
2023/05/25 07:22:55;;;;;;;11.50;8.25;;;16.00;99.90;;;;;;4588101;19;20530;-26
2023/05/25 07:24:26;;;;;;;;;;;16.00;99.90;;;;;;4589693;19;20039;-25
2023/05/25 07:25:58;;;;;;;9.25;7.28;;;16.10;99.90;;;;;;4588624;19;19906;-24
2023/05/25 07:27:30;;;;;;;8.73;6.72;;;16.10;99.90;;;;;;4588310;19;20014;-23
2023/05/25 07:29:02;;;;;;;8.00;7.15;;;16.10;99.90;;;;;;4587316;19;20007;-23
2023/05/25 07:30:33;;;;;;;8.68;7.55;;;16.10;99.90;;;;;;4587047;19;20010;-25
2023/05/25 07:32:05;;;;;;;8.43;7.57;;;16.10;99.90;;;;;;4589989;19;20042;-24
2023/05/25 07:33:38;;;;;;;8.13;6.47;;;16.10;99.90;;;;;;4588567;19;20018;-24
2023/05/25 07:35:10;;;;;;;8.05;6.30;;;16.20;99.90;;;;;;4588776;19;20010;-26
2023/05/25 07:36:42;;;;;;;10.63;7.20;;;16.20;99.90;;;;;;4589006;19;20465;-24
2023/05/25 07:38:13;;;;;;;8.48;7.60;;;16.20;99.90;;;;;;4589559;19;20078;-25
2023/05/25 07:39:44;;;;;;;10.20;7.32;;;16.20;99.90;;;;;;4588692;19;20464;-24
2023/05/25 07:41:15;;;;;;;8.05;7.20;;;16.20;99.90;;;;;;4587095;19;20099;-25
2023/05/25 07:42:47;;;;;;;9.80;7.15;;;16.20;99.90;;;;;;4588473;19;20010;-27
2023/05/25 07:44:18;;;;;;;8.57;7.30;;;16.20;99.90;;;;;;4588031;19;20011;-24
2023/05/25 07:45:49;;;;;;;8.65;7.07;;;16.20;99.90;;;;;;4588135;19;20123;-23
2023/05/25 07:47:21;;;;;;;9.43;6.97;;;16.20;99.90;;;;;;4589277;19;20010;-26
2023/05/25 07:48:53;;;;;;;9.35;7.85;;;16.20;99.90;;;;;;4589671;19;20088;-26
2023/05/25 07:50:24;;;;;;;8.40;7.25;;;16.20;99.90;;;;;;4586936;19;20014;-27
2023/05/25 07:51:56;;;;;;;7.72;6.93;;;16.20;99.90;;;;;;4586042;19;20006;-25
2023/05/25 07:53:27;;;;;;;9.30;8.32;;;16.20;99.90;;;;;;4586539;19;20361;-23
2023/05/25 07:54:59;;;;;;;8.85;7.78;;;16.20;99.90;;;;;;4587203;19;20018;-25
2023/05/25 07:56:31;;;;;;;7.88;7.07;;;16.20;99.90;;;;;;4587921;19;20023;-24
2023/05/25 07:58:03;;;;;;;8.75;7.15;;;16.20;99.90;;;;;;4595016;19;20018;-23
2023/05/25 07:59:34;;;;;;;8.75;7.13;;;16.20;99.90;;;;;;4594037;19;20493;-29